sensor_id;sensor_type;location;lat;lon;timestamp;P1;durP1;ratioP1;P2;durP2;ratioP2
67841;SDS011;54642;59.126;37.876;2023-05-07T00:00:09;129.80;;;63.88;;
67841;SDS011;54642;59.126;37.876;2023-05-07T00:02:36;179.77;;;96.53;;
67841;SDS011;54642;59.126;37.876;2023-05-07T00:05:03;115.88;;;53.53;;
67841;SDS011;54642;59.126;37.876;2023-05-07T00:07:32;104.15;;;49.22;;
67841;SDS011;54642;59.126;37.876;2023-05-07T00:09:58;110.57;;;56.25;;
67841;SDS011;54642;59.126;37.876;2023-05-07T00:14:53;104.53;;;52.53;;
67841;SDS011;54642;59.126;37.876;2023-05-07T00:17:20;109.97;;;49.28;;
67841;SDS011;54642;59.126;37.876;2023-05-07T00:19:46;158.18;;;72.80;;
67841;SDS011;54642;59.126;37.876;2023-05-07T00:22:12;240.02;;;119.47;;
67841;SDS011;54642;59.126;37.876;2023-05-07T00:27:03;156.57;;;73.75;;
67841;SDS011;54642;59.126;37.876;2023-05-07T00:29:31;256.08;;;131.00;;
67841;SDS011;54642;59.126;37.876;2023-05-07T00:34:23;216.30;;;92.68;;
67841;SDS011;54642;59.126;37.876;2023-05-07T00:36:49;192.25;;;82.78;;
67841;SDS011;54642;59.126;37.876;2023-05-07T00:41:41;182.07;;;84.50;;
67841;SDS011;54642;59.126;37.876;2023-05-07T00:44:07;146.65;;;65.10;;
67841;SDS011;54642;59.126;37.876;2023-05-07T00:46:33;132.32;;;52.17;;
67841;SDS011;54642;59.126;37.876;2023-05-07T00:51:26;78.70;;;30.98;;
67841;SDS011;54642;59.126;37.876;2023-05-07T00:53:52;38.33;;;15.68;;
67841;SDS011;54642;59.126;37.876;2023-05-07T00:56:20;56.28;;;23.75;;
67841;SDS011;54642;59.126;37.876;2023-05-07T00:58:46;95.60;;;50.38;;
67841;SDS011;54642;59.126;37.876;2023-05-07T01:01:13;55.72;;;25.33;;
67841;SDS011;54642;59.126;37.876;2023-05-07T01:03:41;111.97;;;59.72;;
67841;SDS011;54642;59.126;37.876;2023-05-07T01:06:07;126.68;;;66.18;;
67841;SDS011;54642;59.126;37.876;2023-05-07T01:08:34;186.45;;;92.80;;
67841;SDS011;54642;59.126;37.876;2023-05-07T01:11:01;197.10;;;98.32;;
67841;SDS011;54642;59.126;37.876;2023-05-07T01:13:27;146.63;;;68.13;;
67841;SDS011;54642;59.126;37.876;2023-05-07T01:15:54;154.82;;;86.95;;
67841;SDS011;54642;59.126;37.876;2023-05-07T01:18:23;118.22;;;60.08;;
67841;SDS011;54642;59.126;37.876;2023-05-07T01:20:51;227.35;;;126.00;;
67841;SDS011;54642;59.126;37.876;2023-05-07T01:23:18;193.30;;;98.95;;
67841;SDS011;54642;59.126;37.876;2023-05-07T01:25:54;253.13;;;128.60;;
67841;SDS011;54642;59.126;37.876;2023-05-07T01:28:22;277.27;;;132.32;;
67841;SDS011;54642;59.126;37.876;2023-05-07T01:30:52;300.83;;;150.13;;
67841;SDS011;54642;59.126;37.876;2023-05-07T01:33:21;347.63;;;179.02;;
67841;SDS011;54642;59.126;37.876;2023-05-07T01:35:48;219.77;;;110.68;;
67841;SDS011;54642;59.126;37.876;2023-05-07T01:38:17;431.77;;;240.10;;
67841;SDS011;54642;59.126;37.876;2023-05-07T01:40:44;360.88;;;191.68;;
67841;SDS011;54642;59.126;37.876;2023-05-07T01:43:11;371.85;;;195.68;;
67841;SDS011;54642;59.126;37.876;2023-05-07T01:45:38;223.05;;;102.07;;
67841;SDS011;54642;59.126;37.876;2023-05-07T01:48:05;144.10;;;58.83;;
67841;SDS011;54642;59.126;37.876;2023-05-07T01:50:31;146.38;;;66.60;;
67841;SDS011;54642;59.126;37.876;2023-05-07T01:52:59;203.98;;;106.93;;
67841;SDS011;54642;59.126;37.876;2023-05-07T01:55:27;140.25;;;68.97;;
67841;SDS011;54642;59.126;37.876;2023-05-07T02:00:19;107.53;;;54.95;;
67841;SDS011;54642;59.126;37.876;2023-05-07T02:02:45;83.38;;;38.38;;
67841;SDS011;54642;59.126;37.876;2023-05-07T02:05:27;77.70;;;30.85;;
67841;SDS011;54642;59.126;37.876;2023-05-07T02:08:01;46.97;;;17.15;;
67841;SDS011;54642;59.126;37.876;2023-05-07T02:10:28;76.82;;;22.00;;
67841;SDS011;54642;59.126;37.876;2023-05-07T02:12:54;53.92;;;16.90;;
67841;SDS011;54642;59.126;37.876;2023-05-07T02:15:20;76.15;;;22.40;;
67841;SDS011;54642;59.126;37.876;2023-05-07T02:18:03;75.13;;;27.85;;
67841;SDS011;54642;59.126;37.876;2023-05-07T02:20:30;58.47;;;21.00;;
67841;SDS011;54642;59.126;37.876;2023-05-07T02:22:56;58.58;;;19.15;;
67841;SDS011;54642;59.126;37.876;2023-05-07T02:25:23;82.18;;;24.27;;
67841;SDS011;54642;59.126;37.876;2023-05-07T02:27:49;93.00;;;26.33;;
67841;SDS011;54642;59.126;37.876;2023-05-07T02:30:21;112.82;;;30.58;;
67841;SDS011;54642;59.126;37.876;2023-05-07T02:32:50;69.43;;;20.63;;
67841;SDS011;54642;59.126;37.876;2023-05-07T02:35:16;74.38;;;21.40;;
67841;SDS011;54642;59.126;37.876;2023-05-07T02:37:42;55.30;;;17.95;;
67841;SDS011;54642;59.126;37.876;2023-05-07T02:40:08;45.80;;;14.45;;
67841;SDS011;54642;59.126;37.876;2023-05-07T02:42:35;33.95;;;9.45;;
67841;SDS011;54642;59.126;37.876;2023-05-07T02:45:01;31.10;;;9.65;;
67841;SDS011;54642;59.126;37.876;2023-05-07T02:47:29;29.30;;;11.73;;
67841;SDS011;54642;59.126;37.876;2023-05-07T02:49:56;49.50;;;14.18;;
67841;SDS011;54642;59.126;37.876;2023-05-07T02:54:48;39.90;;;12.20;;
67841;SDS011;54642;59.126;37.876;2023-05-07T02:57:14;54.25;;;16.35;;
67841;SDS011;54642;59.126;37.876;2023-05-07T02:59:41;31.80;;;12.70;;
67841;SDS011;54642;59.126;37.876;2023-05-07T03:02:08;17.70;;;9.65;;
67841;SDS011;54642;59.126;37.876;2023-05-07T03:04:34;20.08;;;11.65;;
67841;SDS011;54642;59.126;37.876;2023-05-07T03:07:00;23.73;;;9.07;;
67841;SDS011;54642;59.126;37.876;2023-05-07T03:09:26;26.90;;;12.25;;
67841;SDS011;54642;59.126;37.876;2023-05-07T03:11:52;14.75;;;4.57;;
67841;SDS011;54642;59.126;37.876;2023-05-07T03:14:18;18.83;;;8.13;;
67841;SDS011;54642;59.126;37.876;2023-05-07T03:16:44;23.88;;;8.23;;
67841;SDS011;54642;59.126;37.876;2023-05-07T03:19:10;22.17;;;6.57;;
67841;SDS011;54642;59.126;37.876;2023-05-07T03:21:36;11.02;;;4.88;;
67841;SDS011;54642;59.126;37.876;2023-05-07T03:24:02;10.43;;;4.63;;
67841;SDS011;54642;59.126;37.876;2023-05-07T03:26:28;13.90;;;7.05;;
67841;SDS011;54642;59.126;37.876;2023-05-07T03:28:56;15.18;;;4.63;;
67841;SDS011;54642;59.126;37.876;2023-05-07T03:31:22;9.35;;;4.07;;
67841;SDS011;54642;59.126;37.876;2023-05-07T03:33:50;15.07;;;4.35;;
67841;SDS011;54642;59.126;37.876;2023-05-07T03:36:20;5.88;;;3.38;;
67841;SDS011;54642;59.126;37.876;2023-05-07T03:38:46;8.68;;;3.38;;
67841;SDS011;54642;59.126;37.876;2023-05-07T03:41:16;5.07;;;2.65;;
67841;SDS011;54642;59.126;37.876;2023-05-07T03:43:44;8.98;;;5.25;;
67841;SDS011;54642;59.126;37.876;2023-05-07T03:46:11;23.58;;;11.57;;
67841;SDS011;54642;59.126;37.876;2023-05-07T03:48:37;9.52;;;4.03;;
67841;SDS011;54642;59.126;37.876;2023-05-07T03:51:04;7.70;;;3.42;;
67841;SDS011;54642;59.126;37.876;2023-05-07T03:53:32;11.57;;;6.25;;
67841;SDS011;54642;59.126;37.876;2023-05-07T03:55:58;9.68;;;4.32;;
67841;SDS011;54642;59.126;37.876;2023-05-07T03:58:24;14.55;;;6.32;;
67841;SDS011;54642;59.126;37.876;2023-05-07T04:00:51;15.65;;;5.95;;
67841;SDS011;54642;59.126;37.876;2023-05-07T04:03:23;13.43;;;5.20;;
67841;SDS011;54642;59.126;37.876;2023-05-07T04:05:50;11.70;;;4.85;;
67841;SDS011;54642;59.126;37.876;2023-05-07T04:08:16;13.27;;;5.03;;
67841;SDS011;54642;59.126;37.876;2023-05-07T04:10:46;11.52;;;4.13;;
67841;SDS011;54642;59.126;37.876;2023-05-07T04:13:12;16.77;;;7.18;;
67841;SDS011;54642;59.126;37.876;2023-05-07T04:15:39;16.48;;;5.15;;
67841;SDS011;54642;59.126;37.876;2023-05-07T04:18:08;16.42;;;5.40;;
67841;SDS011;54642;59.126;37.876;2023-05-07T04:20:35;13.60;;;5.30;;
67841;SDS011;54642;59.126;37.876;2023-05-07T04:23:08;17.85;;;6.53;;
67841;SDS011;54642;59.126;37.876;2023-05-07T04:25:36;20.10;;;7.18;;
67841;SDS011;54642;59.126;37.876;2023-05-07T04:28:09;15.25;;;6.05;;
67841;SDS011;54642;59.126;37.876;2023-05-07T04:30:39;18.55;;;8.07;;
67841;SDS011;54642;59.126;37.876;2023-05-07T04:33:07;12.98;;;5.88;;
67841;SDS011;54642;59.126;37.876;2023-05-07T04:35:33;22.75;;;9.73;;
67841;SDS011;54642;59.126;37.876;2023-05-07T04:38:00;10.88;;;5.15;;
67841;SDS011;54642;59.126;37.876;2023-05-07T04:40:28;16.25;;;5.32;;
67841;SDS011;54642;59.126;37.876;2023-05-07T04:42:54;17.10;;;7.75;;
67841;SDS011;54642;59.126;37.876;2023-05-07T04:45:20;12.27;;;5.43;;
67841;SDS011;54642;59.126;37.876;2023-05-07T04:47:47;16.80;;;7.00;;
67841;SDS011;54642;59.126;37.876;2023-05-07T04:50:13;12.70;;;5.57;;
67841;SDS011;54642;59.126;37.876;2023-05-07T04:52:40;10.13;;;5.50;;
67841;SDS011;54642;59.126;37.876;2023-05-07T04:55:06;11.23;;;5.78;;
67841;SDS011;54642;59.126;37.876;2023-05-07T04:57:36;13.13;;;5.57;;
67841;SDS011;54642;59.126;37.876;2023-05-07T05:00:05;13.32;;;5.05;;
67841;SDS011;54642;59.126;37.876;2023-05-07T05:02:34;10.57;;;5.85;;
67841;SDS011;54642;59.126;37.876;2023-05-07T05:05:01;31.05;;;11.13;;
67841;SDS011;54642;59.126;37.876;2023-05-07T05:07:30;54.92;;;18.38;;
67841;SDS011;54642;59.126;37.876;2023-05-07T05:09:56;57.05;;;17.83;;
67841;SDS011;54642;59.126;37.876;2023-05-07T05:12:23;27.05;;;10.85;;
67841;SDS011;54642;59.126;37.876;2023-05-07T05:14:49;47.90;;;18.48;;
67841;SDS011;54642;59.126;37.876;2023-05-07T05:17:16;35.75;;;11.13;;
67841;SDS011;54642;59.126;37.876;2023-05-07T05:19:42;37.22;;;10.23;;
67841;SDS011;54642;59.126;37.876;2023-05-07T05:22:08;20.13;;;5.95;;
67841;SDS011;54642;59.126;37.876;2023-05-07T05:24:34;52.80;;;15.13;;
67841;SDS011;54642;59.126;37.876;2023-05-07T05:27:01;46.17;;;16.55;;
67841;SDS011;54642;59.126;37.876;2023-05-07T05:29:29;41.17;;;11.25;;
67841;SDS011;54642;59.126;37.876;2023-05-07T05:31:57;9.90;;;4.80;;
67841;SDS011;54642;59.126;37.876;2023-05-07T05:34:24;24.20;;;10.05;;
67841;SDS011;54642;59.126;37.876;2023-05-07T05:36:50;36.17;;;9.88;;
67841;SDS011;54642;59.126;37.876;2023-05-07T05:39:15;38.65;;;15.98;;
67841;SDS011;54642;59.126;37.876;2023-05-07T05:41:42;26.15;;;11.18;;
67841;SDS011;54642;59.126;37.876;2023-05-07T05:44:08;24.98;;;7.65;;
67841;SDS011;54642;59.126;37.876;2023-05-07T05:46:34;15.48;;;6.35;;
67841;SDS011;54642;59.126;37.876;2023-05-07T05:49:00;14.57;;;6.93;;
67841;SDS011;54642;59.126;37.876;2023-05-07T05:51:26;17.05;;;7.38;;
67841;SDS011;54642;59.126;37.876;2023-05-07T05:53:55;10.90;;;4.55;;
67841;SDS011;54642;59.126;37.876;2023-05-07T05:56:21;11.40;;;4.45;;
67841;SDS011;54642;59.126;37.876;2023-05-07T05:58:47;10.88;;;4.25;;
67841;SDS011;54642;59.126;37.876;2023-05-07T06:01:13;27.38;;;9.45;;
67841;SDS011;54642;59.126;37.876;2023-05-07T06:03:40;17.63;;;8.65;;
67841;SDS011;54642;59.126;37.876;2023-05-07T06:06:11;8.73;;;3.03;;
67841;SDS011;54642;59.126;37.876;2023-05-07T06:08:38;19.38;;;5.28;;
67841;SDS011;54642;59.126;37.876;2023-05-07T06:11:04;22.92;;;9.10;;
67841;SDS011;54642;59.126;37.876;2023-05-07T06:13:34;4.70;;;2.50;;
67841;SDS011;54642;59.126;37.876;2023-05-07T06:16:00;20.25;;;6.40;;
67841;SDS011;54642;59.126;37.876;2023-05-07T06:18:26;7.90;;;2.65;;
67841;SDS011;54642;59.126;37.876;2023-05-07T06:20:52;4.50;;;1.73;;
67841;SDS011;54642;59.126;37.876;2023-05-07T06:23:23;3.88;;;1.80;;
67841;SDS011;54642;59.126;37.876;2023-05-07T06:25:50;5.10;;;2.35;;
67841;SDS011;54642;59.126;37.876;2023-05-07T06:28:20;16.35;;;3.78;;
67841;SDS011;54642;59.126;37.876;2023-05-07T06:30:49;18.60;;;5.13;;
67841;SDS011;54642;59.126;37.876;2023-05-07T06:33:16;12.05;;;2.78;;
67841;SDS011;54642;59.126;37.876;2023-05-07T06:35:42;4.65;;;1.90;;
67841;SDS011;54642;59.126;37.876;2023-05-07T06:38:08;4.72;;;2.35;;
67841;SDS011;54642;59.126;37.876;2023-05-07T06:40:35;5.82;;;3.03;;
67841;SDS011;54642;59.126;37.876;2023-05-07T06:43:01;16.77;;;6.75;;
67841;SDS011;54642;59.126;37.876;2023-05-07T06:45:41;14.70;;;4.38;;
67841;SDS011;54642;59.126;37.876;2023-05-07T06:48:08;17.73;;;4.70;;
67841;SDS011;54642;59.126;37.876;2023-05-07T06:50:44;18.55;;;6.43;;
67841;SDS011;54642;59.126;37.876;2023-05-07T06:53:11;17.83;;;5.85;;
67841;SDS011;54642;59.126;37.876;2023-05-07T06:55:40;8.60;;;3.63;;
67841;SDS011;54642;59.126;37.876;2023-05-07T06:58:09;11.82;;;5.18;;
67841;SDS011;54642;59.126;37.876;2023-05-07T07:00:38;18.08;;;6.75;;
67841;SDS011;54642;59.126;37.876;2023-05-07T07:03:06;21.45;;;7.72;;
67841;SDS011;54642;59.126;37.876;2023-05-07T07:05:32;6.55;;;3.40;;
67841;SDS011;54642;59.126;37.876;2023-05-07T07:08:01;17.50;;;5.07;;
67841;SDS011;54642;59.126;37.876;2023-05-07T07:10:27;30.55;;;8.00;;
67841;SDS011;54642;59.126;37.876;2023-05-07T07:12:54;33.40;;;10.50;;
67841;SDS011;54642;59.126;37.876;2023-05-07T07:15:21;18.23;;;6.57;;
67841;SDS011;54642;59.126;37.876;2023-05-07T07:17:48;24.30;;;13.15;;
67841;SDS011;54642;59.126;37.876;2023-05-07T07:20:14;35.13;;;11.82;;
67841;SDS011;54642;59.126;37.876;2023-05-07T07:22:43;22.40;;;7.35;;
67841;SDS011;54642;59.126;37.876;2023-05-07T07:25:09;16.55;;;5.03;;
67841;SDS011;54642;59.126;37.876;2023-05-07T07:27:36;18.63;;;3.88;;
67841;SDS011;54642;59.126;37.876;2023-05-07T07:30:03;8.38;;;3.65;;
67841;SDS011;54642;59.126;37.876;2023-05-07T07:32:34;13.88;;;3.85;;
67841;SDS011;54642;59.126;37.876;2023-05-07T07:35:00;12.65;;;3.55;;
67841;SDS011;54642;59.126;37.876;2023-05-07T07:37:27;13.15;;;3.72;;
67841;SDS011;54642;59.126;37.876;2023-05-07T07:39:54;16.00;;;5.60;;
67841;SDS011;54642;59.126;37.876;2023-05-07T07:42:21;8.98;;;3.38;;
67841;SDS011;54642;59.126;37.876;2023-05-07T07:44:47;7.80;;;3.65;;
67841;SDS011;54642;59.126;37.876;2023-05-07T07:47:16;8.57;;;5.00;;
67841;SDS011;54642;59.126;37.876;2023-05-07T07:49:43;7.30;;;3.72;;
67841;SDS011;54642;59.126;37.876;2023-05-07T07:52:10;11.65;;;4.95;;
67841;SDS011;54642;59.126;37.876;2023-05-07T07:54:37;16.65;;;8.70;;
67841;SDS011;54642;59.126;37.876;2023-05-07T07:57:05;20.08;;;9.90;;
67841;SDS011;54642;59.126;37.876;2023-05-07T07:59:33;46.17;;;24.02;;
67841;SDS011;54642;59.126;37.876;2023-05-07T08:01:59;43.60;;;19.13;;
67841;SDS011;54642;59.126;37.876;2023-05-07T08:04:27;9.00;;;3.55;;
67841;SDS011;54642;59.126;37.876;2023-05-07T08:07:02;22.48;;;5.30;;
67841;SDS011;54642;59.126;37.876;2023-05-07T08:09:40;21.52;;;4.68;;
67841;SDS011;54642;59.126;37.876;2023-05-07T08:12:07;9.00;;;3.72;;
67841;SDS011;54642;59.126;37.876;2023-05-07T08:14:34;12.70;;;5.35;;
67841;SDS011;54642;59.126;37.876;2023-05-07T08:17:03;6.60;;;2.90;;
67841;SDS011;54642;59.126;37.876;2023-05-07T08:19:29;15.82;;;6.47;;
67841;SDS011;54642;59.126;37.876;2023-05-07T08:21:56;16.67;;;5.32;;
67841;SDS011;54642;59.126;37.876;2023-05-07T08:24:23;21.25;;;3.83;;
67841;SDS011;54642;59.126;37.876;2023-05-07T08:26:50;11.52;;;3.75;;
67841;SDS011;54642;59.126;37.876;2023-05-07T08:29:17;11.00;;;4.57;;
67841;SDS011;54642;59.126;37.876;2023-05-07T08:31:43;15.05;;;4.40;;
67841;SDS011;54642;59.126;37.876;2023-05-07T08:34:09;6.20;;;3.45;;
67841;SDS011;54642;59.126;37.876;2023-05-07T08:36:38;21.27;;;6.47;;
67841;SDS011;54642;59.126;37.876;2023-05-07T08:39:04;17.95;;;9.18;;
67841;SDS011;54642;59.126;37.876;2023-05-07T08:41:30;9.23;;;3.58;;
67841;SDS011;54642;59.126;37.876;2023-05-07T08:43:57;37.08;;;8.10;;
67841;SDS011;54642;59.126;37.876;2023-05-07T08:46:28;33.50;;;15.57;;
67841;SDS011;54642;59.126;37.876;2023-05-07T08:48:58;40.72;;;25.92;;
67841;SDS011;54642;59.126;37.876;2023-05-07T08:51:24;11.80;;;4.72;;
67841;SDS011;54642;59.126;37.876;2023-05-07T08:53:51;96.00;;;73.05;;
67841;SDS011;54642;59.126;37.876;2023-05-07T08:56:29;10.52;;;3.92;;
67841;SDS011;54642;59.126;37.876;2023-05-07T08:58:55;4.95;;;2.40;;
67841;SDS011;54642;59.126;37.876;2023-05-07T09:01:25;4.90;;;1.90;;
67841;SDS011;54642;59.126;37.876;2023-05-07T09:03:52;24.45;;;10.13;;
67841;SDS011;54642;59.126;37.876;2023-05-07T09:06:22;19.10;;;7.13;;
67841;SDS011;54642;59.126;37.876;2023-05-07T09:08:49;16.42;;;3.97;;
67841;SDS011;54642;59.126;37.876;2023-05-07T09:11:19;10.13;;;4.07;;
67841;SDS011;54642;59.126;37.876;2023-05-07T09:13:53;10.70;;;2.22;;
67841;SDS011;54642;59.126;37.876;2023-05-07T09:16:21;8.18;;;5.63;;
67841;SDS011;54642;59.126;37.876;2023-05-07T09:18:50;11.13;;;3.78;;
67841;SDS011;54642;59.126;37.876;2023-05-07T09:21:18;4.93;;;1.95;;
67841;SDS011;54642;59.126;37.876;2023-05-07T09:23:53;3.67;;;1.75;;
67841;SDS011;54642;59.126;37.876;2023-05-07T09:26:24;17.48;;;5.22;;
67841;SDS011;54642;59.126;37.876;2023-05-07T09:28:51;24.80;;;6.00;;
67841;SDS011;54642;59.126;37.876;2023-05-07T09:31:18;32.80;;;8.57;;
67841;SDS011;54642;59.126;37.876;2023-05-07T09:33:44;12.50;;;4.28;;
67841;SDS011;54642;59.126;37.876;2023-05-07T09:36:12;45.33;;;16.60;;
67841;SDS011;54642;59.126;37.876;2023-05-07T09:38:40;9.98;;;6.47;;
67841;SDS011;54642;59.126;37.876;2023-05-07T09:41:08;8.02;;;5.45;;
67841;SDS011;54642;59.126;37.876;2023-05-07T09:43:58;4.68;;;3.28;;
67841;SDS011;54642;59.126;37.876;2023-05-07T09:49:00;4.00;;;2.17;;
67841;SDS011;54642;59.126;37.876;2023-05-07T09:51:34;3.00;;;1.60;;
67841;SDS011;54642;59.126;37.876;2023-05-07T09:54:07;4.38;;;1.50;;
67841;SDS011;54642;59.126;37.876;2023-05-07T09:56:36;4.22;;;2.33;;
67841;SDS011;54642;59.126;37.876;2023-05-07T09:59:04;9.25;;;4.13;;
67841;SDS011;54642;59.126;37.876;2023-05-07T10:01:33;7.28;;;3.40;;
67841;SDS011;54642;59.126;37.876;2023-05-07T10:04:02;12.60;;;4.03;;
67841;SDS011;54642;59.126;37.876;2023-05-07T10:06:30;8.52;;;3.45;;
67841;SDS011;54642;59.126;37.876;2023-05-07T10:08:58;17.88;;;5.32;;
67841;SDS011;54642;59.126;37.876;2023-05-07T10:11:24;8.77;;;4.10;;
67841;SDS011;54642;59.126;37.876;2023-05-07T10:13:53;7.68;;;2.83;;
67841;SDS011;54642;59.126;37.876;2023-05-07T10:16:24;13.93;;;5.15;;
67841;SDS011;54642;59.126;37.876;2023-05-07T10:19:10;10.50;;;4.22;;
67841;SDS011;54642;59.126;37.876;2023-05-07T10:24:39;5.80;;;2.05;;
67841;SDS011;54642;59.126;37.876;2023-05-07T10:27:12;7.07;;;2.20;;
67841;SDS011;54642;59.126;37.876;2023-05-07T10:29:50;5.75;;;2.08;;
67841;SDS011;54642;59.126;37.876;2023-05-07T10:32:40;9.60;;;4.57;;
67841;SDS011;54642;59.126;37.876;2023-05-07T10:35:23;8.75;;;2.90;;
67841;SDS011;54642;59.126;37.876;2023-05-07T10:37:52;12.38;;;3.45;;
67841;SDS011;54642;59.126;37.876;2023-05-07T10:40:20;12.82;;;5.13;;
67841;SDS011;54642;59.126;37.876;2023-05-07T10:42:54;18.73;;;9.23;;
67841;SDS011;54642;59.126;37.876;2023-05-07T10:45:35;5.85;;;2.55;;
67841;SDS011;54642;59.126;37.876;2023-05-07T10:48:36;8.77;;;3.20;;
67841;SDS011;54642;59.126;37.876;2023-05-07T10:56:45;9.48;;;2.50;;
67841;SDS011;54642;59.126;37.876;2023-05-07T11:01:56;5.78;;;2.13;;
67841;SDS011;54642;59.126;37.876;2023-05-07T11:04:43;2.60;;;1.40;;
67841;SDS011;54642;59.126;37.876;2023-05-07T11:07:25;13.27;;;3.70;;
67841;SDS011;54642;59.126;37.876;2023-05-07T11:10:01;23.17;;;7.55;;
67841;SDS011;54642;59.126;37.876;2023-05-07T11:15:13;10.68;;;5.20;;
67841;SDS011;54642;59.126;37.876;2023-05-07T11:17:53;9.57;;;5.70;;
67841;SDS011;54642;59.126;37.876;2023-05-07T11:20:43;8.48;;;5.55;;
67841;SDS011;54642;59.126;37.876;2023-05-07T11:27:08;5.78;;;3.05;;
67841;SDS011;54642;59.126;37.876;2023-05-07T11:29:28;9.43;;;4.10;;
67841;SDS011;54642;59.126;37.876;2023-05-07T11:32:03;1.95;;;0.75;;
67841;SDS011;54642;59.126;37.876;2023-05-07T11:34:34;4.82;;;2.05;;
67841;SDS011;54642;59.126;37.876;2023-05-07T11:37:01;6.97;;;2.60;;
67841;SDS011;54642;59.126;37.876;2023-05-07T11:39:46;7.05;;;3.33;;
67841;SDS011;54642;59.126;37.876;2023-05-07T11:42:29;17.85;;;8.82;;
67841;SDS011;54642;59.126;37.876;2023-05-07T11:44:56;21.88;;;7.85;;
67841;SDS011;54642;59.126;37.876;2023-05-07T11:47:22;6.38;;;2.47;;
67841;SDS011;54642;59.126;37.876;2023-05-07T11:49:50;14.70;;;3.53;;
67841;SDS011;54642;59.126;37.876;2023-05-07T11:52:18;9.38;;;3.17;;
67841;SDS011;54642;59.126;37.876;2023-05-07T11:54:55;12.40;;;3.78;;
67841;SDS011;54642;59.126;37.876;2023-05-07T11:57:25;11.45;;;5.20;;
67841;SDS011;54642;59.126;37.876;2023-05-07T11:59:57;13.82;;;3.90;;
67841;SDS011;54642;59.126;37.876;2023-05-07T12:02:24;7.13;;;4.70;;
67841;SDS011;54642;59.126;37.876;2023-05-07T12:04:51;4.82;;;2.17;;
67841;SDS011;54642;59.126;37.876;2023-05-07T12:07:18;16.13;;;4.20;;
67841;SDS011;54642;59.126;37.876;2023-05-07T12:09:45;11.23;;;3.45;;
67841;SDS011;54642;59.126;37.876;2023-05-07T12:12:13;11.07;;;2.90;;
67841;SDS011;54642;59.126;37.876;2023-05-07T12:14:43;5.00;;;2.42;;
67841;SDS011;54642;59.126;37.876;2023-05-07T12:17:11;10.30;;;4.70;;
67841;SDS011;54642;59.126;37.876;2023-05-07T12:19:39;8.48;;;2.75;;
67841;SDS011;54642;59.126;37.876;2023-05-07T12:22:09;21.48;;;6.88;;
67841;SDS011;54642;59.126;37.876;2023-05-07T12:24:46;9.43;;;3.50;;
67841;SDS011;54642;59.126;37.876;2023-05-07T12:27:16;16.67;;;5.63;;
67841;SDS011;54642;59.126;37.876;2023-05-07T12:29:44;22.85;;;6.20;;
67841;SDS011;54642;59.126;37.876;2023-05-07T12:32:14;10.07;;;3.10;;
67841;SDS011;54642;59.126;37.876;2023-05-07T12:34:41;4.10;;;1.83;;
67841;SDS011;54642;59.126;37.876;2023-05-07T12:37:07;2.60;;;1.38;;
67841;SDS011;54642;59.126;37.876;2023-05-07T12:39:33;3.70;;;1.23;;
67841;SDS011;54642;59.126;37.876;2023-05-07T12:41:59;3.10;;;1.35;;
67841;SDS011;54642;59.126;37.876;2023-05-07T12:44:29;17.60;;;6.53;;
67841;SDS011;54642;59.126;37.876;2023-05-07T12:46:56;8.15;;;2.90;;
67841;SDS011;54642;59.126;37.876;2023-05-07T12:49:23;4.38;;;2.40;;
67841;SDS011;54642;59.126;37.876;2023-05-07T12:51:50;12.77;;;5.55;;
67841;SDS011;54642;59.126;37.876;2023-05-07T12:54:32;12.85;;;4.32;;
67841;SDS011;54642;59.126;37.876;2023-05-07T12:57:04;42.03;;;15.48;;
67841;SDS011;54642;59.126;37.876;2023-05-07T12:59:35;18.13;;;7.53;;
67841;SDS011;54642;59.126;37.876;2023-05-07T13:02:03;21.70;;;6.68;;
67841;SDS011;54642;59.126;37.876;2023-05-07T13:04:31;16.92;;;6.03;;
67841;SDS011;54642;59.126;37.876;2023-05-07T13:06:57;19.25;;;7.50;;
67841;SDS011;54642;59.126;37.876;2023-05-07T13:09:23;17.95;;;7.47;;
67841;SDS011;54642;59.126;37.876;2023-05-07T13:11:49;5.22;;;2.60;;
67841;SDS011;54642;59.126;37.876;2023-05-07T13:14:15;5.38;;;2.55;;
67841;SDS011;54642;59.126;37.876;2023-05-07T13:16:41;9.52;;;1.77;;
67841;SDS011;54642;59.126;37.876;2023-05-07T13:19:08;8.73;;;2.10;;
67841;SDS011;54642;59.126;37.876;2023-05-07T13:21:34;15.00;;;5.20;;
67841;SDS011;54642;59.126;37.876;2023-05-07T13:23:59;20.27;;;7.60;;
67841;SDS011;54642;59.126;37.876;2023-05-07T13:26:25;18.67;;;6.47;;
67841;SDS011;54642;59.126;37.876;2023-05-07T13:28:54;18.50;;;5.95;;
67841;SDS011;54642;59.126;37.876;2023-05-07T13:31:20;24.90;;;8.95;;
67841;SDS011;54642;59.126;37.876;2023-05-07T13:33:46;23.92;;;7.70;;
67841;SDS011;54642;59.126;37.876;2023-05-07T13:36:12;11.50;;;5.75;;
67841;SDS011;54642;59.126;37.876;2023-05-07T13:38:39;18.15;;;10.02;;
67841;SDS011;54642;59.126;37.876;2023-05-07T13:41:05;24.38;;;9.02;;
67841;SDS011;54642;59.126;37.876;2023-05-07T13:43:31;28.92;;;11.13;;
67841;SDS011;54642;59.126;37.876;2023-05-07T13:45:59;7.78;;;2.20;;
67841;SDS011;54642;59.126;37.876;2023-05-07T13:48:28;11.93;;;4.97;;
67841;SDS011;54642;59.126;37.876;2023-05-07T13:50:54;6.35;;;4.28;;
67841;SDS011;54642;59.126;37.876;2023-05-07T13:53:20;3.47;;;1.85;;
67841;SDS011;54642;59.126;37.876;2023-05-07T13:55:46;17.88;;;6.43;;
67841;SDS011;54642;59.126;37.876;2023-05-07T13:58:13;16.30;;;5.10;;
67841;SDS011;54642;59.126;37.876;2023-05-07T14:00:39;6.68;;;3.10;;
67841;SDS011;54642;59.126;37.876;2023-05-07T14:03:05;6.60;;;3.38;;
67841;SDS011;54642;59.126;37.876;2023-05-07T14:05:31;12.57;;;4.43;;
67841;SDS011;54642;59.126;37.876;2023-05-07T14:07:57;15.45;;;4.80;;
67841;SDS011;54642;59.126;37.876;2023-05-07T14:10:24;11.88;;;3.95;;
67841;SDS011;54642;59.126;37.876;2023-05-07T14:12:50;5.60;;;1.80;;
67841;SDS011;54642;59.126;37.876;2023-05-07T14:15:16;7.82;;;3.33;;
67841;SDS011;54642;59.126;37.876;2023-05-07T14:17:43;24.00;;;9.40;;
67841;SDS011;54642;59.126;37.876;2023-05-07T14:20:09;10.30;;;3.53;;
67841;SDS011;54642;59.126;37.876;2023-05-07T14:22:35;3.15;;;1.35;;
67841;SDS011;54642;59.126;37.876;2023-05-07T14:25:02;3.90;;;1.63;;
67841;SDS011;54642;59.126;37.876;2023-05-07T14:27:28;5.35;;;1.20;;
67841;SDS011;54642;59.126;37.876;2023-05-07T14:29:54;8.25;;;2.00;;
67841;SDS011;54642;59.126;37.876;2023-05-07T14:32:20;15.32;;;5.05;;
67841;SDS011;54642;59.126;37.876;2023-05-07T14:34:47;20.92;;;5.95;;
67841;SDS011;54642;59.126;37.876;2023-05-07T14:37:13;17.08;;;3.40;;
67841;SDS011;54642;59.126;37.876;2023-05-07T14:39:39;4.88;;;2.63;;
67841;SDS011;54642;59.126;37.876;2023-05-07T14:42:05;11.70;;;1.80;;
67841;SDS011;54642;59.126;37.876;2023-05-07T14:44:36;7.47;;;1.50;;
67841;SDS011;54642;59.126;37.876;2023-05-07T14:47:02;3.78;;;1.13;;
67841;SDS011;54642;59.126;37.876;2023-05-07T14:49:28;4.22;;;1.33;;
67841;SDS011;54642;59.126;37.876;2023-05-07T14:51:56;6.60;;;2.20;;
67841;SDS011;54642;59.126;37.876;2023-05-07T14:54:23;10.35;;;1.33;;
67841;SDS011;54642;59.126;37.876;2023-05-07T14:56:49;7.60;;;2.20;;
67841;SDS011;54642;59.126;37.876;2023-05-07T14:59:15;6.57;;;2.17;;
67841;SDS011;54642;59.126;37.876;2023-05-07T15:01:44;7.72;;;2.05;;
67841;SDS011;54642;59.126;37.876;2023-05-07T15:04:10;8.48;;;3.33;;